sensor_id;sensor_type;location;lat;lon;timestamp;P1;durP1;ratioP1;P2;durP2;ratioP2
34836;SDS011;21053;50.848;4.652;2022-08-21T00:02:00;11.73;;;2.58;;
34836;SDS011;21053;50.848;4.652;2022-08-21T00:04:27;5.78;;;2.40;;
34836;SDS011;21053;50.848;4.652;2022-08-21T00:06:56;18.50;;;2.72;;
34836;SDS011;21053;50.848;4.652;2022-08-21T00:09:24;10.85;;;2.75;;
34836;SDS011;21053;50.848;4.652;2022-08-21T00:11:53;4.45;;;2.30;;
34836;SDS011;21053;50.848;4.652;2022-08-21T00:14:20;8.27;;;2.72;;
34836;SDS011;21053;50.848;4.652;2022-08-21T00:16:46;6.95;;;2.35;;
34836;SDS011;21053;50.848;4.652;2022-08-21T00:19:11;5.53;;;2.40;;
34836;SDS011;21053;50.848;4.652;2022-08-21T00:21:38;13.70;;;2.85;;
34836;SDS011;21053;50.848;4.652;2022-08-21T00:24:04;8.77;;;3.10;;
34836;SDS011;21053;50.848;4.652;2022-08-21T00:26:34;10.52;;;2.70;;
34836;SDS011;21053;50.848;4.652;2022-08-21T00:28:59;15.70;;;3.00;;
34836;SDS011;21053;50.848;4.652;2022-08-21T00:31:25;3.80;;;2.75;;
34836;SDS011;21053;50.848;4.652;2022-08-21T00:33:52;11.13;;;2.92;;
34836;SDS011;21053;50.848;4.652;2022-08-21T00:36:19;4.35;;;2.40;;
34836;SDS011;21053;50.848;4.652;2022-08-21T00:38:45;6.22;;;2.67;;
34836;SDS011;21053;50.848;4.652;2022-08-21T00:41:12;7.93;;;2.78;;
34836;SDS011;21053;50.848;4.652;2022-08-21T00:43:39;5.53;;;2.55;;
34836;SDS011;21053;50.848;4.652;2022-08-21T00:46:06;14.73;;;3.10;;
34836;SDS011;21053;50.848;4.652;2022-08-21T00:48:34;10.27;;;2.80;;
34836;SDS011;21053;50.848;4.652;2022-08-21T00:51:06;7.25;;;2.80;;
34836;SDS011;21053;50.848;4.652;2022-08-21T00:53:37;5.35;;;2.50;;
34836;SDS011;21053;50.848;4.652;2022-08-21T00:56:05;6.22;;;2.63;;
34836;SDS011;21053;50.848;4.652;2022-08-21T00:58:35;5.97;;;2.38;;
34836;SDS011;21053;50.848;4.652;2022-08-21T01:01:04;5.78;;;2.40;;
34836;SDS011;21053;50.848;4.652;2022-08-21T01:06:04;9.13;;;2.83;;
34836;SDS011;21053;50.848;4.652;2022-08-21T01:08:33;4.60;;;2.47;;
34836;SDS011;21053;50.848;4.652;2022-08-21T01:11:03;7.35;;;2.70;;
34836;SDS011;21053;50.848;4.652;2022-08-21T01:13:29;7.30;;;2.55;;
34836;SDS011;21053;50.848;4.652;2022-08-21T01:16:02;13.70;;;3.00;;
34836;SDS011;21053;50.848;4.652;2022-08-21T01:18:30;7.25;;;2.83;;
34836;SDS011;21053;50.848;4.652;2022-08-21T01:21:05;7.10;;;2.72;;
34836;SDS011;21053;50.848;4.652;2022-08-21T01:23:37;9.48;;;3.17;;
34836;SDS011;21053;50.848;4.652;2022-08-21T01:26:06;3.63;;;2.65;;
34836;SDS011;21053;50.848;4.652;2022-08-21T01:28:34;6.30;;;2.50;;
34836;SDS011;21053;50.848;4.652;2022-08-21T01:31:05;10.93;;;2.60;;
34836;SDS011;21053;50.848;4.652;2022-08-21T01:33:33;10.00;;;3.10;;
34836;SDS011;21053;50.848;4.652;2022-08-21T01:36:01;8.18;;;2.95;;
34836;SDS011;21053;50.848;4.652;2022-08-21T01:38:27;13.90;;;2.92;;
34836;SDS011;21053;50.848;4.652;2022-08-21T01:40:54;6.93;;;2.95;;
34836;SDS011;21053;50.848;4.652;2022-08-21T01:43:20;7.93;;;2.72;;
34836;SDS011;21053;50.848;4.652;2022-08-21T01:45:46;11.75;;;3.28;;
34836;SDS011;21053;50.848;4.652;2022-08-21T01:48:13;4.75;;;2.90;;
34836;SDS011;21053;50.848;4.652;2022-08-21T01:50:39;5.55;;;2.70;;
34836;SDS011;21053;50.848;4.652;2022-08-21T01:53:07;4.45;;;2.63;;
34836;SDS011;21053;50.848;4.652;2022-08-21T01:55:33;4.75;;;2.58;;
34836;SDS011;21053;50.848;4.652;2022-08-21T01:57:59;7.47;;;2.70;;
34836;SDS011;21053;50.848;4.652;2022-08-21T02:00:26;4.85;;;2.35;;
34836;SDS011;21053;50.848;4.652;2022-08-21T02:02:52;4.50;;;2.20;;
34836;SDS011;21053;50.848;4.652;2022-08-21T02:07:48;11.88;;;2.80;;
34836;SDS011;21053;50.848;4.652;2022-08-21T02:10:18;6.43;;;2.92;;
34836;SDS011;21053;50.848;4.652;2022-08-21T02:12:47;6.32;;;3.05;;
34836;SDS011;21053;50.848;4.652;2022-08-21T02:15:15;4.93;;;2.60;;
34836;SDS011;21053;50.848;4.652;2022-08-21T02:17:49;6.80;;;2.67;;
34836;SDS011;21053;50.848;4.652;2022-08-21T02:20:26;5.82;;;3.15;;
34836;SDS011;21053;50.848;4.652;2022-08-21T02:22:55;12.10;;;3.15;;
34836;SDS011;21053;50.848;4.652;2022-08-21T02:25:23;8.52;;;3.22;;
34836;SDS011;21053;50.848;4.652;2022-08-21T02:27:52;9.27;;;2.97;;
34836;SDS011;21053;50.848;4.652;2022-08-21T02:30:26;8.38;;;2.53;;
34836;SDS011;21053;50.848;4.652;2022-08-21T02:32:55;10.13;;;3.50;;
34836;SDS011;21053;50.848;4.652;2022-08-21T02:35:25;6.95;;;3.10;;
34836;SDS011;21053;50.848;4.652;2022-08-21T02:38:00;6.68;;;2.90;;
34836;SDS011;21053;50.848;4.652;2022-08-21T02:40:29;5.50;;;3.00;;
34836;SDS011;21053;50.848;4.652;2022-08-21T02:42:57;10.93;;;2.88;;
34836;SDS011;21053;50.848;4.652;2022-08-21T02:47:55;7.40;;;3.22;;
34836;SDS011;21053;50.848;4.652;2022-08-21T02:50:31;11.43;;;3.05;;
34836;SDS011;21053;50.848;4.652;2022-08-21T02:53:00;12.02;;;3.13;;
34836;SDS011;21053;50.848;4.652;2022-08-21T02:55:27;7.68;;;3.30;;
34836;SDS011;21053;50.848;4.652;2022-08-21T02:57:56;8.90;;;2.72;;
34836;SDS011;21053;50.848;4.652;2022-08-21T03:00:25;7.70;;;3.00;;
34836;SDS011;21053;50.848;4.652;2022-08-21T03:02:54;11.23;;;2.78;;
34836;SDS011;21053;50.848;4.652;2022-08-21T03:05:23;6.90;;;2.97;;
34836;SDS011;21053;50.848;4.652;2022-08-21T03:07:50;5.20;;;2.70;;
34836;SDS011;21053;50.848;4.652;2022-08-21T03:10:19;16.80;;;3.00;;
34836;SDS011;21053;50.848;4.652;2022-08-21T03:12:47;6.53;;;2.70;;
34836;SDS011;21053;50.848;4.652;2022-08-21T03:15:15;6.88;;;2.25;;
34836;SDS011;21053;50.848;4.652;2022-08-21T03:17:43;10.30;;;2.80;;
34836;SDS011;21053;50.848;4.652;2022-08-21T03:20:09;5.40;;;2.42;;
34836;SDS011;21053;50.848;4.652;2022-08-21T03:22:37;6.25;;;2.65;;
34836;SDS011;21053;50.848;4.652;2022-08-21T03:25:03;8.88;;;2.83;;
34836;SDS011;21053;50.848;4.652;2022-08-21T03:27:32;6.90;;;2.80;;
34836;SDS011;21053;50.848;4.652;2022-08-21T03:29:59;6.05;;;2.67;;
34836;SDS011;21053;50.848;4.652;2022-08-21T03:32:25;8.20;;;2.95;;
34836;SDS011;21053;50.848;4.652;2022-08-21T03:34:52;9.88;;;2.80;;
34836;SDS011;21053;50.848;4.652;2022-08-21T03:37:19;7.68;;;3.17;;
34836;SDS011;21053;50.848;4.652;2022-08-21T03:39:51;9.57;;;3.17;;
34836;SDS011;21053;50.848;4.652;2022-08-21T03:42:17;8.70;;;3.03;;
34836;SDS011;21053;50.848;4.652;2022-08-21T03:44:45;8.18;;;2.78;;
34836;SDS011;21053;50.848;4.652;2022-08-21T03:47:11;7.03;;;3.05;;
34836;SDS011;21053;50.848;4.652;2022-08-21T03:49:36;10.38;;;3.15;;
34836;SDS011;21053;50.848;4.652;2022-08-21T03:52:03;8.25;;;3.30;;
34836;SDS011;21053;50.848;4.652;2022-08-21T03:54:30;6.88;;;2.80;;
34836;SDS011;21053;50.848;4.652;2022-08-21T03:56:58;8.68;;;2.65;;
34836;SDS011;21053;50.848;4.652;2022-08-21T03:59:25;7.18;;;2.50;;
34836;SDS011;21053;50.848;4.652;2022-08-21T04:01:52;4.78;;;2.58;;
34836;SDS011;21053;50.848;4.652;2022-08-21T04:04:24;6.13;;;2.72;;
34836;SDS011;21053;50.848;4.652;2022-08-21T04:07:04;6.95;;;2.70;;
34836;SDS011;21053;50.848;4.652;2022-08-21T04:09:29;5.25;;;2.67;;
34836;SDS011;21053;50.848;4.652;2022-08-21T04:11:58;18.63;;;3.17;;
34836;SDS011;21053;50.848;4.652;2022-08-21T04:14:25;6.68;;;2.60;;
34836;SDS011;21053;50.848;4.652;2022-08-21T04:16:54;15.63;;;2.97;;
34836;SDS011;21053;50.848;4.652;2022-08-21T04:19:22;8.15;;;2.88;;
34836;SDS011;21053;50.848;4.652;2022-08-21T04:21:51;7.30;;;2.95;;
34836;SDS011;21053;50.848;4.652;2022-08-21T04:24:17;10.40;;;2.92;;
34836;SDS011;21053;50.848;4.652;2022-08-21T04:26:45;15.68;;;3.20;;
34836;SDS011;21053;50.848;4.652;2022-08-21T04:29:11;6.72;;;3.13;;
34836;SDS011;21053;50.848;4.652;2022-08-21T04:31:37;4.28;;;2.17;;
34836;SDS011;21053;50.848;4.652;2022-08-21T04:34:04;5.65;;;2.45;;
34836;SDS011;21053;50.848;4.652;2022-08-21T04:36:31;5.70;;;2.38;;
34836;SDS011;21053;50.848;4.652;2022-08-21T04:39:04;5.45;;;2.50;;
34836;SDS011;21053;50.848;4.652;2022-08-21T04:41:31;7.30;;;2.53;;
34836;SDS011;21053;50.848;4.652;2022-08-21T04:43:59;12.20;;;2.72;;
34836;SDS011;21053;50.848;4.652;2022-08-21T04:46:26;6.82;;;3.10;;
34836;SDS011;21053;50.848;4.652;2022-08-21T04:48:54;5.57;;;2.50;;
34836;SDS011;21053;50.848;4.652;2022-08-21T04:51:32;5.03;;;2.65;;
34836;SDS011;21053;50.848;4.652;2022-08-21T04:54:14;7.93;;;2.90;;
34836;SDS011;21053;50.848;4.652;2022-08-21T04:56:56;8.68;;;2.72;;
34836;SDS011;21053;50.848;4.652;2022-08-21T04:59:34;5.85;;;2.47;;
34836;SDS011;21053;50.848;4.652;2022-08-21T05:02:04;5.57;;;2.50;;
34836;SDS011;21053;50.848;4.652;2022-08-21T05:04:33;10.60;;;3.15;;
34836;SDS011;21053;50.848;4.652;2022-08-21T05:09:33;7.88;;;2.90;;
34836;SDS011;21053;50.848;4.652;2022-08-21T05:14:29;6.95;;;2.60;;
34836;SDS011;21053;50.848;4.652;2022-08-21T05:19:25;8.13;;;2.67;;
34836;SDS011;21053;50.848;4.652;2022-08-21T05:21:51;7.88;;;2.83;;
34836;SDS011;21053;50.848;4.652;2022-08-21T05:26:45;5.10;;;2.38;;
34836;SDS011;21053;50.848;4.652;2022-08-21T05:31:40;8.18;;;2.70;;
34836;SDS011;21053;50.848;4.652;2022-08-21T05:36:36;8.52;;;2.78;;
34836;SDS011;21053;50.848;4.652;2022-08-21T05:39:03;6.57;;;2.78;;
34836;SDS011;21053;50.848;4.652;2022-08-21T05:43:59;9.00;;;3.05;;
34836;SDS011;21053;50.848;4.652;2022-08-21T05:46:26;7.50;;;3.30;;
34836;SDS011;21053;50.848;4.652;2022-08-21T05:48:52;5.75;;;2.63;;
34836;SDS011;21053;50.848;4.652;2022-08-21T05:51:18;10.32;;;2.72;;
34836;SDS011;21053;50.848;4.652;2022-08-21T05:53:45;5.28;;;2.72;;
34836;SDS011;21053;50.848;4.652;2022-08-21T05:56:13;4.65;;;2.58;;
34836;SDS011;21053;50.848;4.652;2022-08-21T05:58:41;5.22;;;2.83;;
34836;SDS011;21053;50.848;4.652;2022-08-21T06:01:07;7.38;;;2.78;;
34836;SDS011;21053;50.848;4.652;2022-08-21T06:06:05;7.95;;;2.53;;
34836;SDS011;21053;50.848;4.652;2022-08-21T06:08:31;7.85;;;3.05;;
34836;SDS011;21053;50.848;4.652;2022-08-21T06:10:58;14.20;;;3.40;;
34836;SDS011;21053;50.848;4.652;2022-08-21T06:13:26;10.45;;;3.45;;
34836;SDS011;21053;50.848;4.652;2022-08-21T06:18:39;12.32;;;3.50;;
34836;SDS011;21053;50.848;4.652;2022-08-21T06:21:05;14.75;;;3.47;;
34836;SDS011;21053;50.848;4.652;2022-08-21T06:23:32;13.02;;;2.75;;
34836;SDS011;21053;50.848;4.652;2022-08-21T06:26:01;11.90;;;2.60;;
34836;SDS011;21053;50.848;4.652;2022-08-21T06:28:28;8.50;;;2.97;;
34836;SDS011;21053;50.848;4.652;2022-08-21T06:30:55;9.63;;;3.10;;
34836;SDS011;21053;50.848;4.652;2022-08-21T06:33:23;6.88;;;2.90;;
34836;SDS011;21053;50.848;4.652;2022-08-21T06:35:52;9.45;;;3.40;;
34836;SDS011;21053;50.848;4.652;2022-08-21T06:38:18;9.50;;;3.17;;
34836;SDS011;21053;50.848;4.652;2022-08-21T06:40:46;8.40;;;2.83;;
34836;SDS011;21053;50.848;4.652;2022-08-21T06:43:16;8.35;;;3.45;;
34836;SDS011;21053;50.848;4.652;2022-08-21T06:45:43;11.68;;;2.90;;
34836;SDS011;21053;50.848;4.652;2022-08-21T06:48:12;7.95;;;2.55;;
34836;SDS011;21053;50.848;4.652;2022-08-21T06:50:39;6.63;;;2.80;;
34836;SDS011;21053;50.848;4.652;2022-08-21T06:53:07;6.45;;;2.78;;
34836;SDS011;21053;50.848;4.652;2022-08-21T06:55:36;12.20;;;3.33;;
34836;SDS011;21053;50.848;4.652;2022-08-21T06:58:03;13.02;;;3.20;;
34836;SDS011;21053;50.848;4.652;2022-08-21T07:00:31;8.75;;;2.63;;
34836;SDS011;21053;50.848;4.652;2022-08-21T07:02:57;6.28;;;2.60;;
34836;SDS011;21053;50.848;4.652;2022-08-21T07:05:27;10.73;;;3.10;;
34836;SDS011;21053;50.848;4.652;2022-08-21T07:07:55;12.60;;;3.08;;
34836;SDS011;21053;50.848;4.652;2022-08-21T07:10:25;12.13;;;2.88;;
34836;SDS011;21053;50.848;4.652;2022-08-21T07:12:53;10.95;;;2.88;;
34836;SDS011;21053;50.848;4.652;2022-08-21T07:15:21;8.57;;;2.63;;
34836;SDS011;21053;50.848;4.652;2022-08-21T07:17:49;8.75;;;2.47;;
34836;SDS011;21053;50.848;4.652;2022-08-21T07:20:15;10.23;;;2.55;;
34836;SDS011;21053;50.848;4.652;2022-08-21T07:22:42;8.52;;;2.33;;
34836;SDS011;21053;50.848;4.652;2022-08-21T07:25:10;9.65;;;2.40;;
34836;SDS011;21053;50.848;4.652;2022-08-21T07:27:37;5.93;;;2.00;;
34836;SDS011;21053;50.848;4.652;2022-08-21T07:30:03;8.98;;;2.47;;
34836;SDS011;21053;50.848;4.652;2022-08-21T07:32:29;7.45;;;1.90;;
34836;SDS011;21053;50.848;4.652;2022-08-21T07:34:58;11.15;;;2.30;;
34836;SDS011;21053;50.848;4.652;2022-08-21T07:37:24;14.02;;;2.42;;
34836;SDS011;21053;50.848;4.652;2022-08-21T07:39:52;5.70;;;2.00;;
34836;SDS011;21053;50.848;4.652;2022-08-21T07:42:19;11.95;;;2.13;;
34836;SDS011;21053;50.848;4.652;2022-08-21T07:44:48;11.30;;;2.85;;
34836;SDS011;21053;50.848;4.652;2022-08-21T07:47:15;13.80;;;1.90;;
34836;SDS011;21053;50.848;4.652;2022-08-21T07:49:41;8.55;;;2.08;;
34836;SDS011;21053;50.848;4.652;2022-08-21T07:52:08;12.77;;;2.22;;
34836;SDS011;21053;50.848;4.652;2022-08-21T07:54:34;4.90;;;1.70;;
34836;SDS011;21053;50.848;4.652;2022-08-21T07:57:00;7.35;;;1.60;;
34836;SDS011;21053;50.848;4.652;2022-08-21T07:59:26;10.43;;;1.98;;
34836;SDS011;21053;50.848;4.652;2022-08-21T08:01:52;9.32;;;1.85;;
34836;SDS011;21053;50.848;4.652;2022-08-21T08:04:21;13.70;;;2.08;;
34836;SDS011;21053;50.848;4.652;2022-08-21T08:06:48;15.07;;;2.05;;
34836;SDS011;21053;50.848;4.652;2022-08-21T08:09:16;10.43;;;1.88;;
34836;SDS011;21053;50.848;4.652;2022-08-21T08:11:43;5.88;;;1.60;;
34836;SDS011;21053;50.848;4.652;2022-08-21T08:14:11;5.55;;;1.48;;
34836;SDS011;21053;50.848;4.652;2022-08-21T08:16:37;9.38;;;1.73;;
34836;SDS011;21053;50.848;4.652;2022-08-21T08:19:03;6.72;;;1.67;;
34836;SDS011;21053;50.848;4.652;2022-08-21T08:21:30;6.18;;;1.48;;
34836;SDS011;21053;50.848;4.652;2022-08-21T08:23:58;9.25;;;1.55;;
34836;SDS011;21053;50.848;4.652;2022-08-21T08:26:24;7.45;;;1.50;;
34836;SDS011;21053;50.848;4.652;2022-08-21T08:28:51;9.88;;;1.83;;
34836;SDS011;21053;50.848;4.652;2022-08-21T08:31:17;7.25;;;1.80;;
34836;SDS011;21053;50.848;4.652;2022-08-21T08:33:45;8.85;;;1.85;;
34836;SDS011;21053;50.848;4.652;2022-08-21T08:36:14;8.32;;;1.65;;
34836;SDS011;21053;50.848;4.652;2022-08-21T08:38:44;12.40;;;2.22;;
34836;SDS011;21053;50.848;4.652;2022-08-21T08:41:16;7.43;;;1.70;;
34836;SDS011;21053;50.848;4.652;2022-08-21T08:43:47;9.07;;;1.77;;
34836;SDS011;21053;50.848;4.652;2022-08-21T08:46:18;6.35;;;1.73;;
34836;SDS011;21053;50.848;4.652;2022-08-21T08:48:53;13.63;;;1.90;;
34836;SDS011;21053;50.848;4.652;2022-08-21T08:51:25;9.55;;;1.80;;
34836;SDS011;21053;50.848;4.652;2022-08-21T08:54:01;10.30;;;1.90;;
34836;SDS011;21053;50.848;4.652;2022-08-21T08:56:31;11.52;;;2.03;;
34836;SDS011;21053;50.848;4.652;2022-08-21T08:59:05;8.82;;;1.73;;
34836;SDS011;21053;50.848;4.652;2022-08-21T09:01:52;8.15;;;1.95;;
34836;SDS011;21053;50.848;4.652;2022-08-21T09:04:25;11.55;;;1.83;;
34836;SDS011;21053;50.848;4.652;2022-08-21T09:06:56;9.68;;;2.15;;
34836;SDS011;21053;50.848;4.652;2022-08-21T09:12:55;9.73;;;1.45;;
34836;SDS011;21053;50.848;4.652;2022-08-21T09:15:44;11.02;;;2.03;;
34836;SDS011;21053;50.848;4.652;2022-08-21T09:18:27;11.45;;;1.73;;
34836;SDS011;21053;50.848;4.652;2022-08-21T09:24:01;8.90;;;1.63;;
34836;SDS011;21053;50.848;4.652;2022-08-21T09:29:21;6.97;;;1.80;;
34836;SDS011;21053;50.848;4.652;2022-08-21T09:31:50;10.40;;;1.90;;
34836;SDS011;21053;50.848;4.652;2022-08-21T09:34:24;6.78;;;1.80;;
34836;SDS011;21053;50.848;4.652;2022-08-21T09:39:29;10.13;;;1.88;;
34836;SDS011;21053;50.848;4.652;2022-08-21T09:42:00;5.65;;;1.77;;
34836;SDS011;21053;50.848;4.652;2022-08-21T09:47:06;6.23;;;1.50;;
34836;SDS011;21053;50.848;4.652;2022-08-21T09:49:33;6.63;;;1.65;;
34836;SDS011;21053;50.848;4.652;2022-08-21T09:52:01;5.47;;;1.33;;
34836;SDS011;21053;50.848;4.652;2022-08-21T09:54:33;12.35;;;1.83;;
34836;SDS011;21053;50.848;4.652;2022-08-21T09:59:54;7.28;;;1.90;;
34836;SDS011;21053;50.848;4.652;2022-08-21T10:02:26;6.82;;;1.90;;
34836;SDS011;21053;50.848;4.652;2022-08-21T10:07:31;5.05;;;1.60;;
34836;SDS011;21053;50.848;4.652;2022-08-21T10:10:05;11.25;;;1.98;;
34836;SDS011;21053;50.848;4.652;2022-08-21T10:12:36;5.30;;;1.23;;
34836;SDS011;21053;50.848;4.652;2022-08-21T10:17:53;12.00;;;1.77;;
34836;SDS011;21053;50.848;4.652;2022-08-21T10:26:04;11.63;;;2.03;;
34836;SDS011;21053;50.848;4.652;2022-08-21T10:30:59;5.25;;;1.70;;
34836;SDS011;21053;50.848;4.652;2022-08-21T10:36:46;8.20;;;1.70;;
34836;SDS011;21053;50.848;4.652;2022-08-21T10:39:48;8.90;;;2.10;;
34836;SDS011;21053;50.848;4.652;2022-08-21T10:47:59;8.77;;;1.77;;
34836;SDS011;21053;50.848;4.652;2022-08-21T10:50:41;10.30;;;2.25;;
34836;SDS011;21053;50.848;4.652;2022-08-21T10:53:36;14.98;;;2.20;;
34836;SDS011;21053;50.848;4.652;2022-08-21T10:56:25;9.27;;;1.73;;
34836;SDS011;21053;50.848;4.652;2022-08-21T10:59:09;10.75;;;2.53;;
34836;SDS011;21053;50.848;4.652;2022-08-21T11:05:19;12.43;;;1.98;;
34836;SDS011;21053;50.848;4.652;2022-08-21T11:08:02;10.68;;;1.98;;
34836;SDS011;21053;50.848;4.652;2022-08-21T11:13:43;11.48;;;1.90;;
34836;SDS011;21053;50.848;4.652;2022-08-21T11:16:22;12.95;;;2.05;;
34836;SDS011;21053;50.848;4.652;2022-08-21T11:19:05;9.30;;;2.28;;
34836;SDS011;21053;50.848;4.652;2022-08-21T11:24:29;9.73;;;2.00;;
34836;SDS011;21053;50.848;4.652;2022-08-21T11:27:17;11.20;;;2.10;;
34836;SDS011;21053;50.848;4.652;2022-08-21T11:29:49;10.27;;;1.77;;
34836;SDS011;21053;50.848;4.652;2022-08-21T11:37:45;8.98;;;1.75;;
34836;SDS011;21053;50.848;4.652;2022-08-21T11:45:55;8.25;;;1.80;;
34836;SDS011;21053;50.848;4.652;2022-08-21T11:51:17;7.70;;;2.17;;
34836;SDS011;21053;50.848;4.652;2022-08-21T11:54:00;9.25;;;1.98;;
34836;SDS011;21053;50.848;4.652;2022-08-21T11:57:23;9.30;;;2.05;;
34836;SDS011;21053;50.848;4.652;2022-08-21T11:59:38;7.60;;;1.77;;
34836;SDS011;21053;50.848;4.652;2022-08-21T12:02:17;13.82;;;2.90;;
34836;SDS011;21053;50.848;4.652;2022-08-21T12:04:55;11.20;;;2.15;;
34836;SDS011;21053;50.848;4.652;2022-08-21T12:07:39;10.23;;;2.40;;
34836;SDS011;21053;50.848;4.652;2022-08-21T12:10:15;11.73;;;2.22;;
34836;SDS011;21053;50.848;4.652;2022-08-21T12:12:48;15.82;;;1.95;;
34836;SDS011;21053;50.848;4.652;2022-08-21T12:17:56;11.52;;;2.35;;
34836;SDS011;21053;50.848;4.652;2022-08-21T12:25:38;7.68;;;2.00;;
34836;SDS011;21053;50.848;4.652;2022-08-21T12:28:08;10.32;;;2.25;;
34836;SDS011;21053;50.848;4.652;2022-08-21T12:30:41;8.10;;;2.25;;
34836;SDS011;21053;50.848;4.652;2022-08-21T12:38:27;10.18;;;2.17;;
34836;SDS011;21053;50.848;4.652;2022-08-21T12:41:05;6.97;;;1.95;;
34836;SDS011;21053;50.848;4.652;2022-08-21T12:46:06;10.80;;;2.28;;
34836;SDS011;21053;50.848;4.652;2022-08-21T12:51:15;8.20;;;1.80;;
34836;SDS011;21053;50.848;4.652;2022-08-21T12:53:47;9.45;;;1.88;;
34836;SDS011;21053;50.848;4.652;2022-08-21T12:56:26;11.15;;;1.95;;
34836;SDS011;21053;50.848;4.652;2022-08-21T12:59:07;9.15;;;2.13;;
34836;SDS011;21053;50.848;4.652;2022-08-21T13:01:48;7.45;;;1.83;;
34836;SDS011;21053;50.848;4.652;2022-08-21T13:04:18;7.88;;;1.80;;
34836;SDS011;21053;50.848;4.652;2022-08-21T13:06:54;8.38;;;1.60;;
34836;SDS011;21053;50.848;4.652;2022-08-21T13:09:26;8.35;;;1.83;;
34836;SDS011;21053;50.848;4.652;2022-08-21T13:11:54;9.32;;;1.77;;
34836;SDS011;21053;50.848;4.652;2022-08-21T13:16:58;6.80;;;1.60;;
34836;SDS011;21053;50.848;4.652;2022-08-21T13:19:28;9.38;;;1.92;;
34836;SDS011;21053;50.848;4.652;2022-08-21T13:21:58;6.03;;;1.63;;
34836;SDS011;21053;50.848;4.652;2022-08-21T13:24:26;10.23;;;1.80;;
34836;SDS011;21053;50.848;4.652;2022-08-21T13:26:57;8.55;;;1.90;;
34836;SDS011;21053;50.848;4.652;2022-08-21T13:29:27;10.05;;;1.52;;
34836;SDS011;21053;50.848;4.652;2022-08-21T13:31:56;11.23;;;2.08;;
34836;SDS011;21053;50.848;4.652;2022-08-21T13:34:25;6.18;;;1.67;;
34836;SDS011;21053;50.848;4.652;2022-08-21T13:37:04;6.28;;;1.90;;
34836;SDS011;21053;50.848;4.652;2022-08-21T13:39:32;5.63;;;1.63;;
34836;SDS011;21053;50.848;4.652;2022-08-21T13:41:59;5.47;;;1.50;;
34836;SDS011;21053;50.848;4.652;2022-08-21T13:49:31;10.35;;;1.75;;
34836;SDS011;21053;50.848;4.652;2022-08-21T13:52:00;7.35;;;1.77;;
34836;SDS011;21053;50.848;4.652;2022-08-21T13:54:37;11.60;;;1.67;;
34836;SDS011;21053;50.848;4.652;2022-08-21T13:57:29;7.25;;;1.92;;
34836;SDS011;21053;50.848;4.652;2022-08-21T14:00:16;5.68;;;1.60;;
34836;SDS011;21053;50.848;4.652;2022-08-21T14:02:49;5.60;;;1.63;;
34836;SDS011;21053;50.848;4.652;2022-08-21T14:05:22;11.25;;;2.10;;
34836;SDS011;21053;50.848;4.652;2022-08-21T14:08:15;8.05;;;1.85;;
34836;SDS011;21053;50.848;4.652;2022-08-21T14:10:51;11.10;;;1.88;;
34836;SDS011;21053;50.848;4.652;2022-08-21T14:13:26;5.75;;;1.60;;
34836;SDS011;21053;50.848;4.652;2022-08-21T14:21:39;11.05;;;1.65;;
34836;SDS011;21053;50.848;4.652;2022-08-21T14:24:09;9.82;;;2.00;;
34836;SDS011;21053;50.848;4.652;2022-08-21T14:27:23;6.60;;;1.95;;
34836;SDS011;21053;50.848;4.652;2022-08-21T14:29:34;9.27;;;2.10;;
34836;SDS011;21053;50.848;4.652;2022-08-21T14:32:15;5.45;;;1.60;;
34836;SDS011;21053;50.848;4.652;2022-08-21T14:34:52;8.80;;;1.90;;
34836;SDS011;21053;50.848;4.652;2022-08-21T14:37:21;7.57;;;2.10;;
34836;SDS011;21053;50.848;4.652;2022-08-21T14:39:49;6.07;;;1.40;;
34836;SDS011;21053;50.848;4.652;2022-08-21T14:42:15;10.40;;;1.83;;
34836;SDS011;21053;50.848;4.652;2022-08-21T14:44:42;6.00;;;1.90;;
34836;SDS011;21053;50.848;4.652;2022-08-21T14:47:09;5.90;;;1.65;;
34836;SDS011;21053;50.848;4.652;2022-08-21T14:49:37;7.82;;;1.95;;
34836;SDS011;21053;50.848;4.652;2022-08-21T14:52:03;9.32;;;2.10;;
34836;SDS011;21053;50.848;4.652;2022-08-21T14:57:07;5.32;;;1.40;;
34836;SDS011;21053;50.848;4.652;2022-08-21T14:59:36;4.63;;;1.52;;
34836;SDS011;21053;50.848;4.652;2022-08-21T15:02:02;7.43;;;1.55;;
34836;SDS011;21053;50.848;4.652;2022-08-21T15:04:31;7.80;;;1.70;;
34836;SDS011;21053;50.848;4.652;2022-08-21T15:06:59;9.13;;;2.00;;
34836;SDS011;21053;50.848;4.652;2022-08-21T15:09:25;12.07;;;2.25;;
34836;SDS011;21053;50.848;4.652;2022-08-21T15:11:53;6.32;;;1.60;;
34836;SDS011;21053;50.848;4.652;2022-08-21T15:16:52;6.40;;;1.70;;
34836;SDS011;21053;50.848;4.652;2022-08-21T15:19:18;6.93;;;2.03;;
34836;SDS011;21053;50.848;4.652;2022-08-21T15:21:45;7.45;;;1.80;;
34836;SDS011;21053;50.848;4.652;2022-08-21T15:24:11;7.95;;;1.85;;
34836;SDS011;21053;50.848;4.652;2022-08-21T15:26:38;8.32;;;1.48;;
34836;SDS011;21053;50.848;4.652;2022-08-21T15:29:05;8.90;;;2.00;;
34836;SDS011;21053;50.848;4.652;2022-08-21T15:31:34;9.13;;;1.80;;
34836;SDS011;21053;50.848;4.652;2022-08-21T15:34:01;6.03;;;1.65;;
34836;SDS011;21053;50.848;4.652;2022-08-21T15:36:27;8.40;;;1.70;;
34836;SDS011;21053;50.848;4.652;2022-08-21T15:38:53;10.63;;;1.67;;
34836;SDS011;21053;50.848;4.652;2022-08-21T15:41:19;10.30;;;2.00;;
34836;SDS011;21053;50.848;4.652;2022-08-21T15:43:46;9.13;;;2.00;;
34836;SDS011;21053;50.848;4.652;2022-08-21T15:46:16;9.93;;;2.53;;
34836;SDS011;21053;50.848;4.652;2022-08-21T15:48:44;11.85;;;2.42;;
34836;SDS011;21053;50.848;4.652;2022-08-21T15:51:14;6.28;;;1.95;;
34836;SDS011;21053;50.848;4.652;2022-08-21T15:53:44;6.28;;;1.90;;
34836;SDS011;21053;50.848;4.652;2022-08-21T15:58:47;7.13;;;2.17;;
34836;SDS011;21053;50.848;4.652;2022-08-21T16:01:19;11.27;;;2.10;;
34836;SDS011;21053;50.848;4.652;2022-08-21T16:06:16;12.10;;;2.08;;
34836;SDS011;21053;50.848;4.652;2022-08-21T16:08:42;4.40;;;1.38;;
34836;SDS011;21053;50.848;4.652;2022-08-21T16:11:09;7.47;;;1.63;;
34836;SDS011;21053;50.848;4.652;2022-08-21T16:16:16;8.45;;;1.88;;
34836;SDS011;21053;50.848;4.652;2022-08-21T16:18:44;8.05;;;1.85;;
34836;SDS011;21053;50.848;4.652;2022-08-21T16:21:13;11.00;;;2.13;;
34836;SDS011;21053;50.848;4.652;2022-08-21T16:23:41;9.32;;;1.83;;
34836;SDS011;21053;50.848;4.652;2022-08-21T16:26:09;7.78;;;1.80;;
34836;SDS011;21053;50.848;4.652;2022-08-21T16:28:37;10.75;;;1.83;;
34836;SDS011;21053;50.848;4.652;2022-08-21T16:31:07;5.45;;;1.83;;
34836;SDS011;21053;50.848;4.652;2022-08-21T16:33:43;10.02;;;2.17;;
34836;SDS011;21053;50.848;4.652;2022-08-21T16:36:14;8.82;;;1.90;;
34836;SDS011;21053;50.848;4.652;2022-08-21T16:38:41;5.85;;;1.80;;
34836;SDS011;21053;50.848;4.652;2022-08-21T16:41:10;5.45;;;1.70;;
34836;SDS011;21053;50.848;4.652;2022-08-21T16:43:38;10.20;;;1.88;;
34836;SDS011;21053;50.848;4.652;2022-08-21T16:46:06;6.18;;;1.52;;
34836;SDS011;21053;50.848;4.652;2022-08-21T16:48:32;9.25;;;1.83;;
34836;SDS011;21053;50.848;4.652;2022-08-21T16:53:28;9.05;;;2.10;;
34836;SDS011;21053;50.848;4.652;2022-08-21T16:55:54;10.85;;;2.53;;
34836;SDS011;21053;50.848;4.652;2022-08-21T16:58:24;5.30;;;1.80;;
34836;SDS011;21053;50.848;4.652;2022-08-21T17:00:56;12.07;;;2.13;;
34836;SDS011;21053;50.848;4.652;2022-08-21T17:03:31;6.97;;;1.80;;
34836;SDS011;21053;50.848;4.652;2022-08-21T17:06:02;5.35;;;1.92;;
34836;SDS011;21053;50.848;4.652;2022-08-21T17:08:28;5.80;;;1.98;;
34836;SDS011;21053;50.848;4.652;2022-08-21T17:10:55;12.68;;;2.28;;
34836;SDS011;21053;50.848;4.652;2022-08-21T17:13:23;4.18;;;1.75;;
34836;SDS011;21053;50.848;4.652;2022-08-21T17:15:53;6.95;;;2.08;;
34836;SDS011;21053;50.848;4.652;2022-08-21T17:18:19;6.30;;;1.70;;
34836;SDS011;21053;50.848;4.652;2022-08-21T17:20:51;7.43;;;2.00;;